Aérodrome :
LOGIN :

S'inscrire | Disclaimer

   EN    FR    IT 

 










Légende :    VFR   VFR Marginal   IFR   IFR Intensif   IFR Très Intensif
Visi : 
Plafond : 
>= 8 km
>= 3000ft
5 à 8 km
1000 à 3000 ft
1500m à 5 km
500 à 1000 ft
800 à 1500m
200 à 500 ft
< 800m
< 200 ft
Symboles :   Orages  Brouillard  Fortes neiges  Fortes précipitations  Vent > 20 kt
SIGMETs :   Divers  Orages  Givrage  Turbulence  Onde Orograph.  Cendres Volcan.







- Altitude de l'aérodrome : 814 ft
- Code IATA : TLM


DAON - Zenata - Tlemcen

DERNIER METAR :
  • 211100Z 16003KT CAVOK 29/15 Q1020

METARs EXPIRÉS :
  • 211030Z 00000KT CAVOK 28/18 Q1020
  • 211000Z 00000KT CAVOK 26/18 Q1020
  • 210930Z 00000KT CAVOK 25/18 Q1020
  • 210900Z 00000KT CAVOK 25/18 Q1020
  • 210830Z 00000KT CAVOK 22/18 Q1019

TAF TAF DAON
Valide du 21 à 12h jusqu'au 22 à 12h UTC


211100Z 2112/2212 VRB02KT CAVOK
BECMG 2113/2115 36011KT
BECMG 2120/2123 VRB02KT
PROB30
TEMPO 2202/2208 2000 BR SCT010
BECMG 2209/2212 36012KT
Pas de NOTAMs connus pour ce terrain.
1 SIGMET publié pour la FIR Alger (DAAA) :
 
Orages noyés dans la masse
DAAA SIGMET 1 VALID 211100/211400 DAMM
DAAA ALGER FIR EMBD TS OBS E OF LINE N3819 E00649 - N3650 E00649 - TOP FL380 STNR INTSF=



MET'MAP, la Météo Aéronautique d'un coup d'oeil ! - Copyright ORBIFLY Décembre 2007 - Disclaimer

ORBIFLY MET'MAP TEAM :

Programmation & Développement : Alexandra Zaïnal
Conception & Développement : Baudouin d'Aumeries
Co-Programmation & Développement : Marc-Olivier Méhu
Soutien technique & logistique : Manuel Goepfert

Contact : metmap@orbifly.com




SOURCES & CREDITS :

   NOAA